To NAV CANADA Home Page Login to a new session Search on AWWS site Disclaimer Vers la page française équivalente Tips FAQ What's new on the site To the Forecasts and Observations / NOTAM section To "File a Flight Plan" website Publications and other links Update of the User's profile FIC Telephone Numbers My Weather Data Folder Route Weather Data Regional Weather Data Local Weather Data To the Forecasts and Observations / NOTAM section
Request Generated 03/19/2019 at 23:05:56 UTC . Weather information available at that time is displayed.

METAR/TAF

SANDY LAKE/ON    (show WxCam)

METAR CZSJ 192300Z AUTO 27005KT 230V300 9SM OVC060 06/M03 A2965 RMK SLP059=
METAR CZSJ 192200Z AUTO 25006KT 200V280 9SM OVC065 06/M03 A2965 RMK SLP058=
METAR CZSJ 192100Z AUTO 18006KT 160V230 9SM OVC075 05/M02 A2965 RMK SLP059=

*** REMARK        : Forecast period has ended; this was the last TAF issued
*** REMARQUE : La période de prévision est échue; ceci était le dernier TAF qui a été émis
TAF CZSJ 191538Z 1916/1922 22007KT P6SM FEW030 OVC090
FM192100 21008KT P6SM FEW015 BKN080 TEMPO 1921/1922 4SM -RASN
BKN015 OVC080
RMK FCST BASED ON AUTO OBS. NXT FCST WILL BE ISSUED AT 200945Z=
Your time UTC time
Weather data provided by Environment Canada and NAV CANADA